createdAt,value
2023-04-15T00:02:05.997Z,100799.81
2023-04-15T00:04:37.759Z,100803.34
2023-04-15T00:07:07.550Z,100801.56
2023-04-15T00:09:37.627Z,100804.22
2023-04-15T00:12:07.469Z,100806.91
2023-04-15T00:14:37.895Z,100805.16
2023-04-15T00:17:08.883Z,100803.34
2023-04-15T00:19:38.987Z,100804.19
2023-04-15T00:22:09.514Z,100806.84
2023-04-15T00:24:39.538Z,100795.41
2023-04-15T00:27:09.118Z,100798.03
2023-04-15T00:29:39.120Z,100791.84
2023-04-15T00:32:10.320Z,100799.81
2023-04-15T00:34:40.221Z,100795.38
2023-04-15T00:37:10.984Z,100795.41
2023-04-15T00:39:41.149Z,100791.88
2023-04-15T00:42:11.344Z,100792.72
2023-04-15T00:44:41.350Z,100793.63
2023-04-15T00:47:13.138Z,100798.94
2023-04-15T00:49:43.070Z,100792.78
2023-04-15T00:52:12.657Z,100790.13
2023-04-15T00:54:42.750Z,100792.78
2023-04-15T00:57:12.451Z,100790.13
2023-04-15T00:59:42.536Z,100798.91
2023-04-15T01:02:14.791Z,100787.44
2023-04-15T01:04:45.379Z,100795.41
2023-04-15T01:07:15.289Z,100794.56
2023-04-15T01:09:45.939Z,100792.81
2023-04-15T01:12:16.664Z,100799.88
2023-04-15T01:14:46.943Z,100793.66
2023-04-15T01:17:17.974Z,100799.88
2023-04-15T01:19:48.138Z,100800.78
2023-04-15T01:22:17.879Z,100796.38
2023-04-15T01:24:52.538Z,100801.66
2023-04-15T01:27:24.045Z,100799.94
2023-04-15T01:29:54.155Z,100808.84
2023-04-15T01:32:23.900Z,100809.75
2023-04-15T01:34:56.988Z,100808.00
2023-04-15T01:37:27.866Z,100800.06
2023-04-15T01:39:58.763Z,100807.13
2023-04-15T01:42:29.894Z,100798.31
2023-04-15T01:44:59.852Z,100796.53
2023-04-15T01:47:29.640Z,100798.25
2023-04-15T01:49:59.650Z,100806.19
2023-04-15T01:52:31.450Z,100801.78
2023-04-15T01:55:01.374Z,100804.41
2023-04-15T01:57:32.471Z,100796.47
2023-04-15T02:00:02.514Z,100792.03
2023-04-15T02:02:42.857Z,100803.53
2023-04-15T02:05:12.869Z,100760.47
2023-04-15T02:07:42.818Z,100807.09
2023-04-15T02:10:13.774Z,100808.00
2023-04-15T02:12:44.884Z,100815.03
2023-04-15T02:15:15.969Z,100816.81
2023-04-15T02:17:51.631Z,100812.47
2023-04-15T02:20:22.740Z,100801.00
2023-04-15T02:22:52.798Z,100805.44
2023-04-15T02:25:22.683Z,100801.94
2023-04-15T02:27:54.003Z,100807.25
2023-04-15T02:30:25.771Z,100806.38
2023-04-15T02:32:56.317Z,100802.84
2023-04-15T02:35:28.295Z,100810.78
2023-04-15T02:37:58.512Z,100809.91
2023-04-15T02:40:29.121Z,100806.38
2023-04-15T02:43:00.993Z,100805.50
2023-04-15T02:45:31.940Z,100807.25
2023-04-15T02:48:06.784Z,100802.84
2023-04-15T02:50:38.124Z,100803.72
2023-04-15T02:53:08.011Z,100807.28
2023-04-15T02:55:38.002Z,100808.16
2023-04-15T02:58:09.144Z,100801.97
2023-04-15T03:00:39.074Z,100811.66
2023-04-15T03:03:09.402Z,100802.84
2023-04-15T03:05:40.422Z,100807.25
2023-04-15T03:08:10.810Z,100811.66
2023-04-15T03:10:40.707Z,100810.78
2023-04-15T03:13:11.776Z,100807.25
2023-04-15T03:15:42.331Z,100803.72
2023-04-15T03:18:12.692Z,100812.56
2023-04-15T03:20:44.206Z,100810.78
2023-04-15T03:23:13.918Z,100755.34
2023-04-15T03:25:44.020Z,100809.91
2023-04-15T03:28:15.346Z,100814.34
2023-04-15T03:30:45.377Z,100815.22
2023-04-15T03:33:15.009Z,100823.16
2023-04-15T03:35:45.227Z,100815.22
2023-04-15T03:38:15.933Z,100818.75
2023-04-15T03:40:46.099Z,100812.56
2023-04-15T03:43:17.370Z,100816.06
2023-04-15T03:45:47.421Z,100825.78
2023-04-15T03:48:18.358Z,100814.31
2023-04-15T03:50:48.616Z,100821.38
2023-04-15T03:53:18.231Z,100819.63
2023-04-15T03:55:48.244Z,100820.50
2023-04-15T03:58:19.442Z,100816.97
2023-04-15T04:00:49.571Z,100812.59
2023-04-15T04:03:19.434Z,100815.22
2023-04-15T04:05:49.776Z,100819.63
2023-04-15T04:08:19.898Z,100821.41
2023-04-15T04:10:51.048Z,100825.81
2023-04-15T04:13:22.086Z,100825.81
2023-04-15T04:15:53.438Z,100831.09
2023-04-15T04:18:23.309Z,100831.13
2023-04-15T04:20:53.665Z,100832.88
2023-04-15T04:23:23.229Z,100824.03
2023-04-15T04:25:53.848Z,100827.56
2023-04-15T04:28:24.789Z,100833.72
2023-04-15T04:30:54.997Z,100829.31
2023-04-15T04:33:24.594Z,100832.84
2023-04-15T04:35:54.565Z,100825.78
2023-04-15T04:38:24.246Z,100827.56
2023-04-15T04:40:54.265Z,100826.69
2023-04-15T04:43:25.676Z,100828.44
2023-04-15T04:45:55.732Z,100829.34
2023-04-15T04:48:25.418Z,100837.25
2023-04-15T04:50:55.560Z,100831.06
2023-04-15T04:53:25.138Z,100835.47
2023-04-15T04:55:55.162Z,100844.25
2023-04-15T04:58:26.798Z,100840.75
2023-04-15T05:00:57.278Z,100838.97
2023-04-15T05:03:27.705Z,100842.50
2023-04-15T05:05:57.826Z,100845.16
2023-04-15T05:08:27.435Z,100843.34
2023-04-15T05:10:58.173Z,100842.47
2023-04-15T05:13:30.356Z,100846.84
2023-04-15T05:16:00.261Z,100846.78
2023-04-15T05:18:29.943Z,100850.34
2023-04-15T05:21:00.178Z,100853.88
2023-04-15T05:23:29.912Z,100848.53
2023-04-15T05:25:59.790Z,100849.41
2023-04-15T05:28:31.379Z,100853.78
2023-04-15T05:31:01.806Z,100847.59
2023-04-15T05:33:31.619Z,100858.16
2023-04-15T05:36:01.485Z,100851.03
2023-04-15T05:38:31.475Z,100855.41
2023-04-15T05:41:01.705Z,100848.34
2023-04-15T05:43:33.028Z,100853.59
2023-04-15T05:46:03.124Z,100852.63
2023-04-15T05:48:32.961Z,100848.09
2023-04-15T05:51:03.032Z,100853.31
2023-04-15T05:53:32.980Z,100850.56
2023-04-15T05:56:03.157Z,100809.16
2023-04-15T05:58:34.376Z,100848.59
2023-04-15T06:01:04.672Z,100853.84
2023-04-15T06:03:34.730Z,100853.69
2023-04-15T06:06:04.789Z,100858.09
2023-04-15T06:08:34.510Z,100859.84
2023-04-15T06:11:04.500Z,100863.38
2023-04-15T06:13:35.606Z,100858.09
2023-04-15T06:16:05.831Z,100858.00
2023-04-15T06:18:35.459Z,100862.34
2023-04-15T06:21:05.390Z,100856.97
2023-04-15T06:23:36.515Z,100859.56
2023-04-15T06:26:06.587Z,100858.66
2023-04-15T06:28:37.768Z,100860.25
2023-04-15T06:31:07.970Z,100861.97
2023-04-15T06:33:37.739Z,100863.69
2023-04-15T06:36:07.936Z,100859.31
2023-04-15T06:38:37.663Z,100858.31
2023-04-15T06:41:07.919Z,100857.22
2023-04-15T06:43:39.067Z,100859.75
2023-04-15T06:46:09.301Z,100856.91
2023-04-15T06:48:39.163Z,100856.00
2023-04-15T06:51:09.253Z,100865.75
2023-04-15T06:53:41.465Z,100869.41
2023-04-15T06:56:11.622Z,100868.41
2023-04-15T06:58:42.805Z,100865.69
2023-04-15T07:01:14.397Z,100866.53
2023-04-15T07:03:44.385Z,100875.31
2023-04-15T07:06:14.629Z,100868.16
2023-04-15T07:08:44.359Z,100870.75
2023-04-15T07:11:14.484Z,100875.19
2023-04-15T07:14:45.914Z,100870.84
2023-04-15T07:21:16.714Z,100875.34
2023-04-15T07:23:46.217Z,100871.84
2023-04-15T07:26:16.083Z,100880.72
2023-04-15T07:28:47.228Z,100887.81
2023-04-15T07:31:18.009Z,100895.09
2023-04-15T07:33:47.676Z,100888.91
2023-04-15T07:36:19.446Z,100886.19
2023-04-15T07:38:49.325Z,100883.28
2023-04-15T07:41:20.729Z,100881.50
2023-04-15T07:43:51.423Z,100881.41
2023-04-15T07:46:21.953Z,100890.22
2023-04-15T07:48:51.652Z,100899.00
2023-04-15T07:51:23.579Z,100893.66
2023-04-15T07:53:54.329Z,100888.34
2023-04-15T07:56:26.221Z,100889.22
2023-04-15T07:58:56.063Z,100886.53
2023-04-15T08:01:26.189Z,100899.94
2023-04-15T08:03:56.079Z,100888.47
2023-04-15T08:06:28.035Z,100883.97
2023-04-15T08:08:57.855Z,100893.75
2023-04-15T08:11:28.742Z,100893.81
2023-04-15T08:13:58.336Z,100892.84
2023-04-15T08:16:28.991Z,100892.97
2023-04-15T08:18:58.957Z,100895.56
2023-04-15T08:21:31.970Z,100896.34
2023-04-15T08:24:05.414Z,100891.09
2023-04-15T08:26:37.893Z,100889.31
2023-04-15T08:29:07.532Z,100893.34
2023-04-15T08:31:37.889Z,100896.75
2023-04-15T08:34:08.474Z,100892.31
2023-04-15T08:36:41.047Z,100894.00
2023-04-15T08:39:10.874Z,100892.31
2023-04-15T08:41:42.304Z,100896.72
2023-04-15T08:44:12.088Z,100900.44
2023-04-15T08:46:42.930Z,100904.84
2023-04-15T08:49:13.487Z,100902.28
2023-04-15T08:51:45.606Z,100898.78
2023-04-15T08:54:15.371Z,100906.72
2023-04-15T08:56:45.605Z,100907.72
2023-04-15T08:59:15.438Z,100909.53
2023-04-15T09:01:45.853Z,100905.16
2023-04-15T09:04:16.096Z,100905.94
2023-04-15T09:06:47.750Z,100910.47
2023-04-15T09:09:17.352Z,100908.78
2023-04-15T09:11:47.335Z,100913.25
2023-04-15T09:14:17.285Z,100908.78
2023-04-15T09:16:59.965Z,100906.94
2023-04-15T09:19:30.161Z,100910.41
2023-04-15T09:22:02.371Z,100914.94
2023-04-15T09:24:37.749Z,100903.47
2023-04-15T09:27:08.175Z,100907.91
2023-04-15T09:29:38.038Z,100908.63
2023-04-15T09:32:12.184Z,100901.59
2023-04-15T09:34:42.200Z,100905.16
2023-04-15T09:37:28.614Z,100908.66
2023-04-15T09:40:01.386Z,100902.44
2023-04-15T09:42:32.927Z,100899.81
2023-04-15T09:45:10.372Z,100910.47
2023-04-15T09:47:40.941Z,100913.19
2023-04-15T09:50:11.403Z,100914.13
2023-04-15T09:52:44.827Z,100911.50
2023-04-15T09:55:15.533Z,100909.69
2023-04-15T09:57:47.568Z,100917.59
2023-04-15T10:00:17.587Z,100917.50
2023-04-15T10:02:49.411Z,100914.81
2023-04-15T10:05:19.668Z,100917.47
2023-04-15T10:07:51.423Z,100912.72
2023-04-15T10:10:21.543Z,100920.72
2023-04-15T10:12:53.426Z,100905.56
2023-04-15T10:15:28.458Z,100904.56
2023-04-15T10:18:00.307Z,100908.91
2023-04-15T10:24:06.565Z,100914.06
2023-04-15T10:26:36.690Z,100923.69
2023-04-15T10:29:07.058Z,100920.28
2023-04-15T10:31:38.602Z,100916.66
2023-04-15T10:34:09.713Z,100907.78
2023-04-15T10:36:39.368Z,100921.91
2023-04-15T10:42:14.218Z,100909.31
2023-04-15T10:44:45.066Z,100910.09
2023-04-15T10:47:15.826Z,100911.81
2023-04-15T10:49:47.345Z,100911.94
2023-04-15T10:52:18.558Z,100909.97
2023-04-15T10:54:48.849Z,100907.16
2023-04-15T10:57:23.475Z,100911.84
2023-04-15T11:00:07.025Z,100905.66
2023-04-15T11:02:44.955Z,100911.91
2023-04-15T11:05:16.427Z,100912.75
2023-04-15T11:07:51.400Z,100909.41
2023-04-15T11:10:55.352Z,100916.50
2023-04-15T11:13:29.795Z,100907.66
2023-04-15T11:16:04.757Z,100906.75
2023-04-15T11:18:38.315Z,100913.00
2023-04-15T11:21:10.693Z,100911.31
2023-04-15T11:23:48.828Z,100912.31
2023-04-15T11:26:19.644Z,100910.47
2023-04-15T11:28:50.306Z,100917.53
2023-04-15T11:31:25.845Z,100914.84
2023-04-15T11:33:58.362Z,100915.72
2023-04-15T11:36:28.952Z,100912.31
2023-04-15T11:39:01.408Z,100913.16
2023-04-15T11:41:32.762Z,100917.50
2023-04-15T11:44:02.754Z,100925.41
2023-04-15T11:46:38.671Z,100922.41
2023-04-15T11:49:10.373Z,100925.03
2023-04-15T11:51:40.486Z,100923.34
2023-04-15T11:54:10.039Z,100928.94
2023-04-15T11:56:40.069Z,100928.16
2023-04-15T11:59:09.631Z,100926.50
2023-04-15T12:01:42.719Z,100929.13
2023-04-15T12:04:16.893Z,100927.44
2023-04-15T12:06:47.344Z,100937.09
2023-04-15T12:09:20.781Z,100945.84
2023-04-15T12:11:53.156Z,100933.41
2023-04-15T12:14:25.984Z,100939.63
2023-04-15T12:17:00.637Z,100938.72
2023-04-15T12:19:32.808Z,100941.38
2023-04-15T12:22:04.466Z,100939.56
2023-04-15T12:24:34.668Z,100944.91
2023-04-15T12:27:05.921Z,100949.44
2023-04-15T12:29:36.349Z,100952.31
2023-04-15T12:32:08.867Z,100954.09
2023-04-15T12:34:39.373Z,100961.13
2023-04-15T12:37:11.078Z,100955.97
2023-04-15T12:39:41.517Z,100955.34
2023-04-15T12:42:12.096Z,100961.63
2023-04-15T12:44:41.723Z,100953.84
2023-04-15T12:47:13.770Z,100966.09
2023-04-15T12:49:43.390Z,100967.88
2023-04-15T12:52:13.912Z,100967.97
2023-04-15T12:54:43.712Z,100973.25
2023-04-15T12:57:13.763Z,100983.03
2023-04-15T12:59:43.445Z,100979.63
2023-04-15T13:02:14.945Z,100980.50
2023-04-15T13:04:44.770Z,100984.03
2023-04-15T13:07:15.914Z,100993.81
2023-04-15T13:09:45.393Z,100997.47
2023-04-15T13:12:16.518Z,100992.13
2023-04-15T13:14:46.078Z,100990.34
2023-04-15T13:17:20.706Z,101001.03
2023-04-15T13:19:50.355Z,101004.69
2023-04-15T13:22:20.401Z,101002.97
2023-04-15T13:24:49.943Z,101011.09
2023-04-15T13:27:20.233Z,101006.69
2023-04-15T13:29:49.803Z,101018.19
2023-04-15T13:32:21.241Z,101019.97
2023-04-15T13:34:50.843Z,101018.31
2023-04-15T13:37:21.323Z,101012.00
2023-04-15T13:39:50.975Z,101019.09
2023-04-15T13:42:21.182Z,101020.94
2023-04-15T13:44:51.678Z,101019.16
2023-04-15T13:47:23.222Z,101015.69
2023-04-15T13:49:54.454Z,101026.34
2023-04-15T13:52:24.732Z,101026.41
2023-04-15T13:55:19.546Z,101029.06
2023-04-15T13:57:44.512Z,101031.75
2023-04-15T14:00:15.171Z,101033.53
2023-04-15T14:02:46.976Z,101033.53
2023-04-15T14:05:17.000Z,101024.75
2023-04-15T14:07:47.084Z,101038.94
2023-04-15T14:10:16.872Z,101033.63
2023-04-15T14:12:46.822Z,101028.31
2023-04-15T14:15:16.719Z,101032.69
2023-04-15T14:17:48.210Z,101039.75
2023-04-15T14:20:17.960Z,101035.28
2023-04-15T14:22:47.978Z,101045.03
2023-04-15T14:25:26.926Z,101038.84
2023-04-15T14:28:03.684Z,101039.75
2023-04-15T14:30:34.441Z,101046.94
2023-04-15T14:33:06.001Z,101046.94
2023-04-15T14:35:35.730Z,101054.03
2023-04-15T14:38:06.977Z,101045.22
2023-04-15T14:40:36.699Z,101054.09
2023-04-15T14:43:06.724Z,101053.16
2023-04-15T14:45:36.717Z,101051.44
2023-04-15T14:48:10.148Z,101059.41
2023-04-15T14:50:39.754Z,101060.25
2023-04-15T14:53:09.650Z,101061.19
2023-04-15T14:55:39.384Z,101067.44
2023-04-15T14:58:09.750Z,101072.75
2023-04-15T15:00:42.203Z,101066.53
2023-04-15T15:03:14.238Z,101063.06
2023-04-15T15:05:44.551Z,101071.97
2023-04-15T15:08:15.212Z,101074.69
2023-04-15T15:10:49.432Z,101074.69
2023-04-15T15:13:20.392Z,101074.69
2023-04-15T15:15:50.656Z,101083.59
2023-04-15T15:18:22.231Z,101078.31
2023-04-15T15:20:53.132Z,101087.22
2023-04-15T15:23:23.135Z,101088.19
2023-04-15T15:25:52.874Z,101095.31
2023-04-15T15:28:23.346Z,101094.44
2023-04-15T15:30:53.101Z,101099.75
2023-04-15T15:33:25.140Z,101098.84
2023-04-15T15:35:54.984Z,101099.78
2023-04-15T15:38:25.274Z,101098.03
2023-04-15T15:40:54.893Z,101100.72
2023-04-15T15:43:24.911Z,101106.91
2023-04-15T15:45:55.809Z,101112.25
2023-04-15T15:48:27.252Z,101116.69
2023-04-15T15:50:56.949Z,101111.38
2023-04-15T15:53:27.302Z,101119.31
2023-04-15T15:55:56.995Z,101122.88
2023-04-15T15:58:27.253Z,101124.66
2023-04-15T16:00:56.920Z,101127.34
2023-04-15T16:03:28.466Z,101130.88
2023-04-15T16:05:58.292Z,101132.63
2023-04-15T16:08:28.090Z,101135.34
2023-04-15T16:10:57.573Z,101140.63
2023-04-15T16:13:27.575Z,101140.66
2023-04-15T16:15:57.232Z,101145.09
2023-04-15T16:18:28.622Z,101143.31
2023-04-15T16:20:58.221Z,101145.09
2023-04-15T16:23:28.152Z,101150.38
2023-04-15T16:25:58.017Z,101146.84
2023-04-15T16:28:27.908Z,101153.03
2023-04-15T16:30:57.746Z,101154.81
2023-04-15T16:33:29.045Z,101156.56
2023-04-15T16:35:58.721Z,101161.88
2023-04-15T16:38:28.763Z,101170.72
2023-04-15T16:41:00.440Z,101169.84
2023-04-15T16:43:30.699Z,101169.84
2023-04-15T16:46:00.413Z,101178.69
2023-04-15T16:48:32.121Z,101178.69
2023-04-15T16:51:01.748Z,101180.47
2023-04-15T16:53:31.848Z,101180.44
2023-04-15T16:56:01.592Z,101186.66
2023-04-15T16:58:32.022Z,101131.06
2023-04-15T17:01:01.849Z,101191.97
2023-04-15T17:03:33.760Z,101188.44
2023-04-15T17:06:03.804Z,101186.63
2023-04-15T17:08:33.690Z,101184.88
2023-04-15T17:11:03.398Z,101194.59
2023-04-15T17:13:33.700Z,101191.06
2023-04-15T17:16:03.719Z,101195.50
2023-04-15T17:18:35.656Z,101197.25
2023-04-15T17:21:06.651Z,101199.91
2023-04-15T17:23:36.780Z,101206.09
2023-04-15T17:26:06.574Z,101206.97
2023-04-15T17:28:39.730Z,101216.69
2023-04-15T17:31:10.511Z,101210.50
2023-04-15T17:34:01.087Z,101213.19
2023-04-15T17:36:32.584Z,101221.16
2023-04-15T17:39:04.146Z,101222.03
2023-04-15T17:41:34.153Z,101226.47
2023-04-15T17:44:05.632Z,101230.91
2023-04-15T17:46:35.457Z,101233.56
2023-04-15T17:49:07.494Z,101237.97
2023-04-15T17:51:37.185Z,101241.50
2023-04-15T17:54:10.395Z,101243.28
2023-04-15T17:56:41.358Z,101241.53
2023-04-15T17:59:11.991Z,101244.16
2023-04-15T18:01:42.778Z,101255.66
2023-04-15T18:04:14.515Z,101253.91
2023-04-15T18:06:44.344Z,101255.66
2023-04-15T18:09:14.274Z,101265.41
2023-04-15T18:11:45.573Z,101266.31
2023-04-15T18:14:30.660Z,101271.59
2023-04-15T18:17:04.527Z,101278.66
2023-04-15T18:19:37.629Z,101281.31
2023-04-15T18:22:07.709Z,101285.75
2023-04-15T18:24:38.690Z,101293.69
2023-04-15T18:27:08.745Z,101293.69
2023-04-15T18:29:39.102Z,101296.38
2023-04-15T18:32:08.976Z,101296.38
2023-04-15T18:34:40.377Z,101297.25
2023-04-15T18:37:10.182Z,101299.88
2023-04-15T18:39:40.392Z,101306.06
2023-04-15T18:42:10.299Z,101307.84
2023-04-15T18:44:40.949Z,101306.09
2023-04-15T18:47:10.834Z,101308.72
2023-04-15T18:49:45.481Z,101314.00
2023-04-15T18:52:21.156Z,101312.25
2023-04-15T18:54:54.116Z,101306.97
2023-04-15T18:57:30.865Z,101314.91
2023-04-15T19:00:01.511Z,101321.97
2023-04-15T19:02:31.510Z,101323.72
2023-04-15T19:05:04.853Z,101324.63
2023-04-15T19:07:34.652Z,101323.72
2023-04-15T19:10:05.341Z,101320.19
2023-04-15T19:12:36.741Z,101322.84
2023-04-15T19:15:07.563Z,101327.25
2023-04-15T19:17:37.318Z,101332.53
2023-04-15T19:20:09.930Z,101332.53
2023-04-15T19:22:39.952Z,101325.47
2023-04-15T19:25:10.631Z,101322.81
2023-04-15T19:27:40.609Z,101328.13
2023-04-15T19:30:11.283Z,101331.63
2023-04-15T19:32:41.027Z,101326.34
2023-04-15T19:35:12.994Z,101330.75
2023-04-15T19:37:43.042Z,101343.09
2023-04-15T19:40:13.324Z,101334.25
2023-04-15T19:42:43.151Z,101339.50
2023-04-15T19:45:13.482Z,101343.00
2023-04-15T19:47:46.513Z,101339.50
2023-04-15T19:50:26.922Z,101336.84
2023-04-15T19:53:00.659Z,101338.59
2023-04-15T19:55:34.693Z,101339.44
2023-04-15T19:58:07.745Z,101342.09
2023-04-15T20:00:44.015Z,101342.97
2023-04-15T20:03:17.271Z,101347.38
2023-04-15T20:05:50.858Z,101342.94
2023-04-15T20:08:21.965Z,101349.13
2023-04-15T20:10:53.589Z,101343.78
2023-04-15T20:13:25.978Z,101341.13
2023-04-15T20:16:01.186Z,101350.81
2023-04-15T20:18:31.923Z,101348.16
2023-04-15T20:21:04.255Z,101345.50
2023-04-15T20:23:37.959Z,101354.31
2023-04-15T20:26:09.621Z,101349.88
2023-04-15T20:28:39.293Z,101350.75
2023-04-15T20:31:12.243Z,101354.25
2023-04-15T20:33:43.077Z,101350.72
2023-04-15T20:36:15.000Z,101355.97
2023-04-15T20:38:44.756Z,101348.03
2023-04-15T20:41:18.995Z,101349.81
2023-04-15T20:43:52.419Z,101361.22
2023-04-15T20:46:24.594Z,101356.81
2023-04-15T20:48:56.584Z,101348.84
2023-04-15T20:51:29.258Z,101347.09
2023-04-15T20:54:00.059Z,101363.00
2023-04-15T20:56:32.389Z,101359.41
2023-04-15T20:59:05.324Z,101357.63
2023-04-15T21:01:37.048Z,101358.53
2023-04-15T21:04:08.482Z,101360.25
2023-04-15T21:06:43.460Z,101360.25
2023-04-15T21:09:15.405Z,101364.66
2023-04-15T21:12:00.449Z,101362.88
2023-04-15T21:14:31.373Z,101370.78
2023-04-15T21:17:09.264Z,101368.16
2023-04-15T21:19:40.755Z,101364.63
2023-04-15T21:22:12.343Z,101371.69
2023-04-15T21:24:42.089Z,101374.31
2023-04-15T21:27:12.951Z,101381.38
2023-04-15T21:29:42.821Z,101376.06
2023-04-15T21:32:13.182Z,101371.63
2023-04-15T21:34:42.844Z,101380.44
2023-04-15T21:37:14.801Z,101374.28
2023-04-15T21:39:44.390Z,101377.84
2023-04-15T21:42:14.735Z,101371.63
2023-04-15T21:44:44.443Z,101389.25
2023-04-15T21:47:14.945Z,101388.38
2023-04-15T21:49:44.932Z,101390.97
2023-04-15T21:52:17.930Z,101394.53
2023-04-15T21:54:48.318Z,101390.09
2023-04-15T21:57:18.661Z,101393.59
2023-04-15T21:59:48.341Z,101403.31
2023-04-15T22:02:19.202Z,101405.06
2023-04-15T22:04:48.881Z,101407.66
2023-04-15T22:07:20.602Z,101407.66
2023-04-15T22:09:50.321Z,101412.94
2023-04-15T22:12:20.673Z,101420.88
2023-04-15T22:14:50.460Z,101419.13
2023-04-15T22:17:20.509Z,101423.56
2023-04-15T22:19:50.129Z,101427.97
2023-04-15T22:22:21.502Z,101423.56
2023-04-15T22:24:56.273Z,101420.03
2023-04-15T22:27:26.373Z,101428.81
2023-04-15T22:29:56.193Z,101429.69
2023-04-15T22:32:26.174Z,101435.00
2023-04-15T22:34:55.751Z,101437.63
2023-04-15T22:37:30.719Z,101433.16
2023-04-15T22:40:01.871Z,101434.97
2023-04-15T22:42:31.860Z,101437.63
2023-04-15T22:45:01.335Z,101438.53
2023-04-15T22:47:31.236Z,101441.16
2023-04-15T22:50:01.103Z,101433.22
2023-04-15T22:52:32.642Z,101434.16
2023-04-15T22:55:02.421Z,101434.97
2023-04-15T22:57:32.556Z,101440.28
2023-04-15T23:00:02.087Z,101442.03
2023-04-15T23:02:32.320Z,101439.38
2023-04-15T23:05:04.221Z,101438.50
2023-04-15T23:07:43.812Z,101441.09
2023-04-15T23:10:13.347Z,101438.44
2023-04-15T23:12:43.488Z,101439.31
2023-04-15T23:15:13.341Z,101436.69
2023-04-15T23:17:43.466Z,101448.19
2023-04-15T23:20:13.599Z,101437.56
2023-04-15T23:22:44.975Z,101438.44
2023-04-15T23:25:14.608Z,101433.16
2023-04-15T23:27:44.519Z,101437.53
2023-04-15T23:30:14.474Z,101441.97
2023-04-15T23:32:44.486Z,101439.28
2023-04-15T23:35:14.139Z,101441.06
2023-04-15T23:37:45.703Z,101435.78
2023-04-15T23:40:15.957Z,101441.97
2023-04-15T23:42:45.814Z,101441.09
2023-04-15T23:45:15.293Z,101446.38
2023-04-15T23:47:45.266Z,101437.50
2023-04-15T23:50:14.898Z,101446.31
2023-04-15T23:52:46.341Z,101446.31
2023-04-15T23:55:15.998Z,101441.91
2023-04-15T23:57:46.020Z,101436.63
